Time,TemperatureF,DewpointF,PressureIn,WindDirection,WindDirectionDegrees,WindSpeedMPH,WindSpeedGustMPH,Humidity,HourlyPrecipIn,Conditions,Clouds,dailyrainin,SolarRadiationWatts/m^2,SoftwareType,DateUTC
2013-03-29 00:04:00,38.7,32.7,30.09,NNW,342,4.0,5.0,79,0.00,,,0.00,0,Wunderground v.1.15,2013-03-29 04:04:00,
2013-03-29 00:09:00,38.6,32.3,30.09,WNW,292,5.0,5.0,78,0.00,,,0.00,0,Wunderground v.1.15,2013-03-29 04:09:00,
2013-03-29 00:14:00,38.5,32.6,30.09,NW,309,5.0,9.0,79,0.00,,,0.00,0,Wunderground v.1.15,2013-03-29 04:14:00,
2013-03-29 00:19:00,38.4,32.5,30.09,NNW,339,5.0,9.0,79,0.00,,,0.00,0,Wunderground v.1.15,2013-03-29 04:19:00,
2013-03-29 00:24:00,38.3,32.4,30.09,North,5,6.0,6.0,79,0.00,,,0.00,0,Wunderground v.1.15,2013-03-29 04:24:00,
2013-03-29 00:29:00,38.2,32.3,30.09,WNW,302,6.0,6.0,79,0.00,,,0.00,0,Wunderground v.1.15,2013-03-29 04:29:00,
2013-03-29 00:34:00,38.1,32.2,30.09,North,355,6.0,6.0,79,0.00,,,0.00,0,Wunderground v.1.15,2013-03-29 04:34:00,
2013-03-29 00:39:00,38.0,32.4,30.09,North,355,6.0,6.0,80,0.00,,,0.00,0,Wunderground v.1.15,2013-03-29 04:39:00,
2013-03-29 00:49:00,37.7,32.1,30.09,North,350,6.0,6.0,80,0.00,,,0.00,0,Wunderground v.1.15,2013-03-29 04:49:00,
2013-03-29 00:54:00,37.6,32.0,30.09,NW,306,5.0,9.0,80,0.00,,,0.00,0,Wunderground v.1.15,2013-03-29 04:54:00,
2013-03-29 00:59:00,37.5,32.2,30.09,NNW,339,5.0,9.0,81,0.00,,,0.00,0,Wunderground v.1.15,2013-03-29 04:59:00,
2013-03-29 01:09:00,37.3,32.0,30.09,NNW,333,4.0,5.0,81,0.00,,,0.00,0,Wunderground v.1.15,2013-03-29 05:09:00,
2013-03-29 01:14:00,37.1,31.8,30.10,North,360,3.0,3.0,81,0.00,,,0.00,0,Wunderground v.1.15,2013-03-29 05:14:00,
2013-03-29 01:19:00,37.0,32.0,30.10,WNW,295,3.0,3.0,82,0.00,,,0.00,0,Wunderground v.1.15,2013-03-29 05:19:00,
2013-03-29 01:29:00,36.9,31.9,30.09,North,355,4.0,9.0,82,0.00,,,0.00,0,Wunderground v.1.15,2013-03-29 05:29:00,
2013-03-29 01:34:00,36.9,31.9,30.09,North,355,4.0,6.0,82,0.00,,,0.00,0,Wunderground v.1.15,2013-03-29 05:34:00,
2013-03-29 01:39:00,37.0,31.7,30.09,NNW,342,5.0,6.0,81,0.00,,,0.00,0,Wunderground v.1.15,2013-03-29 05:39:00,
2013-03-29 01:44:00,37.0,31.7,30.09,NNW,347,5.0,5.0,81,0.00,,,0.00,0,Wunderground v.1.15,2013-03-29 05:44:00,
2013-03-29 01:54:00,37.1,31.5,30.10,NNW,348,7.0,7.0,80,0.00,,,0.00,0,Wunderground v.1.15,2013-03-29 05:54:00,
2013-03-29 01:59:00,37.1,31.2,30.10,NNW,339,7.0,7.0,79,0.00,,,0.00,0,Wunderground v.1.15,2013-03-29 05:59:00,
2013-03-29 02:09:00,36.9,30.7,30.10,NNW,344,6.0,7.0,78,0.00,,,0.00,0,Wunderground v.1.15,2013-03-29 06:09:00,
2013-03-29 02:14:00,36.8,30.6,30.10,NNW,344,6.0,6.0,78,0.00,,,0.00,0,Wunderground v.1.15,2013-03-29 06:14:00,
2013-03-29 02:24:00,36.7,30.5,30.10,NNW,344,6.0,6.0,78,0.00,,,0.00,0,Wunderground v.1.15,2013-03-29 06:24:00,
2013-03-29 02:29:00,36.6,30.4,30.10,NNW,329,6.0,6.0,78,0.00,,,0.00,0,Wunderground v.1.15,2013-03-29 06:29:00,
2013-03-29 02:34:00,36.6,30.4,30.10,NW,325,7.0,13.0,78,0.00,,,0.00,0,Wunderground v.1.15,2013-03-29 06:34:00,
2013-03-29 02:39:00,36.6,30.1,30.10,NNW,339,7.0,13.0,77,0.00,,,0.00,0,Wunderground v.1.15,2013-03-29 06:39:00,
2013-03-29 02:49:00,36.4,29.9,30.10,North,360,7.0,7.0,77,0.00,,,0.00,0,Wunderground v.1.15,2013-03-29 06:49:00,
2013-03-29 02:54:00,36.3,29.8,30.10,North,360,6.0,6.0,77,0.00,,,0.00,0,Wunderground v.1.15,2013-03-29 06:54:00,
2013-03-29 02:59:00,36.2,29.7,30.10,North,360,7.0,8.0,77,0.00,,,0.00,0,Wunderground v.1.15,2013-03-29 06:59:00,
2013-03-29 03:04:00,36.2,29.7,30.10,NNW,347,7.0,8.0,77,0.00,,,0.00,0,Wunderground v.1.15,2013-03-29 07:04:00,
2013-03-29 03:14:00,36.1,29.6,30.10,NNW,339,6.0,6.0,77,0.00,,,0.00,0,Wunderground v.1.15,2013-03-29 07:14:00,
2013-03-29 03:19:00,36.1,29.6,30.10,NNW,340,6.0,6.0,77,0.00,,,0.00,0,Wunderground v.1.15,2013-03-29 07:19:00,
2013-03-29 03:24:00,36.0,29.5,30.10,NNW,342,7.0,8.0,77,0.00,,,0.00,0,Wunderground v.1.15,2013-03-29 07:24:00,
2013-03-29 03:29:00,36.0,29.5,30.10,North,349,6.0,8.0,77,0.00,,,0.00,0,Wunderground v.1.15,2013-03-29 07:29:00,
2013-03-29 03:34:00,35.9,29.4,30.10,NNW,327,6.0,9.0,77,0.00,,,0.00,0,Wunderground v.1.15,2013-03-29 07:34:00,
2013-03-29 03:39:00,35.9,29.4,30.10,North,360,7.0,9.0,77,0.00,,,0.00,0,Wunderground v.1.15,2013-03-29 07:39:00,
2013-03-29 03:49:00,35.7,29.2,30.10,NW,322,5.0,8.0,77,0.00,,,0.00,0,Wunderground v.1.15,2013-03-29 07:49:00,
2013-03-29 03:54:00,35.6,29.1,30.10,North,351,6.0,7.0,77,0.00,,,0.00,0,Wunderground v.1.15,2013-03-29 07:54:00,
2013-03-29 04:04:00,35.5,29.3,30.10,WNW,298,6.0,7.0,78,0.00,,,0.00,0,Wunderground v.1.15,2013-03-29 08:04:00,
2013-03-29 04:09:00,35.4,29.2,30.10,NNW,344,7.0,7.0,78,0.00,,,0.00,0,Wunderground v.1.15,2013-03-29 08:09:00,
2013-03-29 04:14:00,35.3,29.1,30.10,NW,325,6.0,7.0,78,0.00,,,0.00,0,Wunderground v.1.15,2013-03-29 08:14:00,
2013-03-29 04:24:00,35.3,29.1,30.10,NNW,342,7.0,7.0,78,0.00,,,0.00,0,Wunderground v.1.15,2013-03-29 08:24:00,
2013-03-29 04:29:00,35.3,29.4,30.10,NNW,341,6.0,7.0,79,0.00,,,0.00,0,Wunderground v.1.15,2013-03-29 08:29:00,
2013-03-29 04:34:00,35.2,29.3,30.09,North,11,7.0,7.0,79,0.00,,,0.00,0,Wunderground v.1.15,2013-03-29 08:34:00,
2013-03-29 04:39:00,35.2,29.3,30.10,NW,309,8.0,8.0,79,0.00,,,0.00,0,Wunderground v.1.15,2013-03-29 08:39:00,
2013-03-29 04:44:00,35.2,29.3,30.10,NNW,345,8.0,8.0,79,0.00,,,0.00,0,Wunderground v.1.15,2013-03-29 08:44:00,
2013-03-29 04:49:00,35.2,29.3,30.10,NW,324,8.0,8.0,79,0.00,,,0.00,0,Wunderground v.1.15,2013-03-29 08:49:00,
2013-03-29 04:59:00,35.2,29.3,30.09,NNW,327,8.0,8.0,79,0.00,,,0.00,0,Wunderground v.1.15,2013-03-29 08:59:00,
2013-03-29 05:04:00,35.1,29.2,30.09,NW,323,8.0,8.0,79,0.00,,,0.00,0,Wunderground v.1.15,2013-03-29 09:04:00,
2013-03-29 05:14:00,34.9,29.4,30.09,NNW,348,7.0,7.0,80,0.00,,,0.00,0,Wunderground v.1.15,2013-03-29 09:14:00,
2013-03-29 05:24:00,34.7,29.2,30.09,NW,317,7.0,7.0,80,0.00,,,0.00,0,Wunderground v.1.15,2013-03-29 09:24:00,
2013-03-29 05:34:00,34.7,29.2,30.09,NNW,344,7.0,9.0,80,0.00,,,0.00,0,Wunderground v.1.15,2013-03-29 09:34:00,
2013-03-29 05:39:00,34.6,29.1,30.09,NNW,347,7.0,9.0,80,0.00,,,0.00,0,Wunderground v.1.15,2013-03-29 09:39:00,
2013-03-29 05:49:00,34.5,29.0,30.09,NNW,344,6.0,8.0,80,0.00,,,0.00,0,Wunderground v.1.15,2013-03-29 09:49:00,
2013-03-29 05:54:00,34.4,28.9,30.09,NNE,24,7.0,7.0,80,0.00,,,0.00,0,Wunderground v.1.15,2013-03-29 09:54:00,
2013-03-29 05:59:00,34.3,28.8,30.09,North,350,7.0,7.0,80,0.00,,,0.00,0,Wunderground v.1.15,2013-03-29 09:59:00,
2013-03-29 06:09:00,34.3,28.8,30.09,NNW,338,7.0,7.0,80,0.00,,,0.00,0,Wunderground v.1.15,2013-03-29 10:09:00,
2013-03-29 06:19:00,34.1,28.6,30.09,North,355,6.0,7.0,80,0.00,,,0.00,0,Wunderground v.1.15,2013-03-29 10:19:00,
2013-03-29 06:29:00,34.0,28.8,30.09,North,5,6.0,7.0,81,0.00,,,0.00,0,Wunderground v.1.15,2013-03-29 10:29:00,
2013-03-29 06:34:00,33.9,28.7,30.09,NNW,336,5.0,7.0,81,0.00,,,0.00,0,Wunderground v.1.15,2013-03-29 10:34:00,
2013-03-29 06:39:00,33.8,28.6,30.09,North,5,6.0,7.0,81,0.00,,,0.00,5,Wunderground v.1.15,2013-03-29 10:39:00,
2013-03-29 06:44:00,33.7,28.5,30.09,NNW,332,5.0,11.0,81,0.00,,,0.00,7,Wunderground v.1.15,2013-03-29 10:44:00,
2013-03-29 06:49:00,33.8,28.6,30.09,NNW,338,6.0,11.0,81,0.00,,,0.00,11,Wunderground v.1.15,2013-03-29 10:49:00,
2013-03-29 06:59:00,33.9,28.7,30.10,North,360,6.0,6.0,81,0.00,,,0.00,16,Wunderground v.1.15,2013-03-29 10:59:00,
2013-03-29 07:04:00,33.9,28.7,30.10,NNW,343,6.0,6.0,81,0.00,,,0.00,19,Wunderground v.1.15,2013-03-29 11:04:00,
2013-03-29 07:09:00,34.1,28.9,30.10,NW,319,6.0,6.0,81,0.00,,,0.00,23,Wunderground v.1.15,2013-03-29 11:09:00,
2013-03-29 07:14:00,34.2,28.7,30.10,North,5,6.0,7.0,80,0.00,,,0.00,37,Wunderground v.1.15,2013-03-29 11:14:00,
2013-03-29 07:24:00,34.8,29.3,30.10,NNW,344,6.0,7.0,80,0.00,,,0.00,69,Wunderground v.1.15,2013-03-29 11:24:00,
2013-03-29 07:34:00,35.5,29.3,30.10,North,349,7.0,9.0,78,0.00,,,0.00,100,Wunderground v.1.15,2013-03-29 11:34:00,
2013-03-29 07:39:00,35.8,29.6,30.10,North,5,6.0,9.0,78,0.00,,,0.00,118,Wunderground v.1.15,2013-03-29 11:39:00,
2013-03-29 07:49:00,36.4,29.9,30.10,NNE,19,8.0,8.0,77,0.00,,,0.00,158,Wunderground v.1.15,2013-03-29 11:49:00,
2013-03-29 07:54:00,36.7,29.8,30.10,North,5,7.0,7.0,76,0.00,,,0.00,178,Wunderground v.1.15,2013-03-29 11:54:00,
2013-03-29 07:59:00,37.0,30.1,30.11,NNW,328,7.0,7.0,76,0.00,,,0.00,197,Wunderground v.1.15,2013-03-29 11:59:00,
2013-03-29 08:04:00,37.4,30.2,30.11,NNW,335,7.0,7.0,75,0.00,,,0.00,216,Wunderground v.1.15,2013-03-29 12:04:00,
2013-03-29 08:14:00,37.9,30.4,30.11,NW,326,8.0,8.0,74,0.00,,,0.00,246,Wunderground v.1.15,2013-03-29 12:14:00,
2013-03-29 08:19:00,38.3,30.4,30.11,NNW,338,7.0,9.0,73,0.00,,,0.00,262,Wunderground v.1.15,2013-03-29 12:19:00,
2013-03-29 08:24:00,38.6,30.7,30.11,NNW,345,7.0,9.0,73,0.00,,,0.00,276,Wunderground v.1.15,2013-03-29 12:24:00,
2013-03-29 08:29:00,39.0,30.7,30.11,North,9,8.0,9.0,72,0.00,,,0.00,295,Wunderground v.1.15,2013-03-29 12:29:00,
2013-03-29 08:34:00,39.3,30.7,30.11,North,355,8.0,10.0,71,0.00,,,0.00,311,Wunderground v.1.15,2013-03-29 12:34:00,
2013-03-29 08:44:00,39.9,31.3,30.11,NNE,30,8.0,8.0,71,0.00,,,0.00,341,Wunderground v.1.15,2013-03-29 12:44:00,
2013-03-29 08:49:00,40.3,30.9,30.11,NNW,333,7.0,8.0,69,0.00,,,0.00,359,Wunderground v.1.15,2013-03-29 12:49:00,
2013-03-29 08:54:00,40.6,31.2,30.11,North,5,7.0,10.0,69,0.00,,,0.00,374,Wunderground v.1.15,2013-03-29 12:54:00,
2013-03-29 09:04:00,40.8,31.4,30.11,North,5,8.0,8.0,69,0.00,,,0.00,406,Wunderground v.1.15,2013-03-29 13:04:00,
2013-03-29 09:14:00,41.5,31.4,30.11,NNW,348,7.0,7.0,67,0.00,,,0.00,434,Wunderground v.1.15,2013-03-29 13:14:00,
2013-03-29 09:19:00,41.6,31.4,30.11,NNE,26,7.0,7.0,67,0.00,,,0.00,450,Wunderground v.1.15,2013-03-29 13:19:00,
2013-03-29 09:24:00,41.9,31.4,30.11,NNW,346,7.0,7.0,66,0.00,,,0.00,466,Wunderground v.1.15,2013-03-29 13:24:00,
2013-03-29 09:29:00,42.6,32.0,30.11,NNE,17,7.0,7.0,66,0.00,,,0.00,482,Wunderground v.1.15,2013-03-29 13:29:00,
2013-03-29 09:34:00,42.6,32.0,30.11,NNW,334,7.0,7.0,66,0.00,,,0.00,497,Wunderground v.1.15,2013-03-29 13:34:00,
2013-03-29 09:39:00,43.1,31.7,30.11,NNW,336,6.0,8.0,64,0.00,,,0.00,512,Wunderground v.1.15,2013-03-29 13:39:00,
2013-03-29 09:44:00,43.0,31.6,30.11,North,351,7.0,7.0,64,0.00,,,0.00,527,Wunderground v.1.15,2013-03-29 13:44:00,
2013-03-29 09:54:00,43.3,31.9,30.11,NNW,338,8.0,9.0,64,0.00,,,0.00,552,Wunderground v.1.15,2013-03-29 13:54:00,
2013-03-29 10:04:00,44.5,31.9,30.11,North,355,6.0,6.0,61,0.00,,,0.00,580,Wunderground v.1.15,2013-03-29 14:04:00,
2013-03-29 10:09:00,44.4,32.2,30.11,North,355,7.0,9.0,62,0.00,,,0.00,592,Wunderground v.1.15,2013-03-29 14:09:00,
2013-03-29 10:14:00,44.8,32.6,30.11,North,5,7.0,7.0,62,0.00,,,0.00,605,Wunderground v.1.15,2013-03-29 14:14:00,
2013-03-29 10:19:00,45.3,32.6,30.11,North,5,5.0,7.0,61,0.00,,,0.00,617,Wunderground v.1.15,2013-03-29 14:19:00,
2013-03-29 10:24:00,45.3,32.2,30.11,NNE,15,5.0,8.0,60,0.00,,,0.00,629,Wunderground v.1.15,2013-03-29 14:24:00,
2013-03-29 10:29:00,45.3,32.2,30.11,North,360,7.0,8.0,60,0.00,,,0.00,642,Wunderground v.1.15,2013-03-29 14:29:00,
2013-03-29 10:34:00,45.7,32.2,30.11,WNW,292,6.0,7.0,59,0.00,,,0.00,650,Wunderground v.1.15,2013-03-29 14:34:00,
2013-03-29 10:39:00,45.4,31.9,30.11,North,360,6.0,7.0,59,0.00,,,0.00,663,Wunderground v.1.15,2013-03-29 14:39:00,
2013-03-29 10:44:00,45.6,31.7,30.11,NNW,346,7.0,11.0,58,0.00,,,0.00,675,Wunderground v.1.15,2013-03-29 14:44:00,
2013-03-29 10:54:00,46.0,32.0,30.11,NNW,345,8.0,8.0,58,0.00,,,0.00,696,Wunderground v.1.15,2013-03-29 14:54:00,
2013-03-29 10:59:00,46.5,31.6,30.11,North,360,6.0,11.0,56,0.00,,,0.00,703,Wunderground v.1.15,2013-03-29 14:59:00,
2013-03-29 11:04:00,46.4,32.0,30.11,NNW,335,6.0,7.0,57,0.00,,,0.00,714,Wunderground v.1.15,2013-03-29 15:04:00,
2013-03-29 11:09:00,46.7,31.8,30.11,NNE,22,6.0,7.0,56,0.00,,,0.00,722,Wunderground v.1.15,2013-03-29 15:09:00,
2013-03-29 11:19:00,46.5,32.1,30.11,North,5,5.0,7.0,57,0.00,,,0.00,742,Wunderground v.1.15,2013-03-29 15:19:00,
2013-03-29 11:24:00,46.5,31.2,30.11,NNE,32,6.0,6.0,55,0.00,,,0.00,749,Wunderground v.1.15,2013-03-29 15:24:00,
2013-03-29 11:29:00,47.0,32.1,30.11,North,360,6.0,6.0,56,0.00,,,0.00,819,Wunderground v.1.15,2013-03-29 15:29:00,
2013-03-29 11:34:00,47.3,32.4,30.11,NNW,346,6.0,12.0,56,0.00,,,0.00,788,Wunderground v.1.15,2013-03-29 15:34:00,
2013-03-29 11:39:00,46.9,32.0,30.11,NE,38,7.0,12.0,56,0.00,,,0.00,882,Wunderground v.1.15,2013-03-29 15:39:00,
2013-03-29 11:49:00,47.1,32.2,30.10,NW,323,5.0,10.0,56,0.00,,,0.00,900,Wunderground v.1.15,2013-03-29 15:49:00,
2013-03-29 11:59:00,46.7,31.8,30.10,NNW,340,8.0,13.0,56,0.00,,,0.00,940,Wunderground v.1.15,2013-03-29 15:59:00,
2013-03-29 12:04:00,47.1,32.2,30.10,NNE,29,7.0,8.0,56,0.00,,,0.00,949,Wunderground v.1.15,2013-03-29 16:04:00,
2013-03-29 12:09:00,47.0,32.1,30.10,NNE,17,7.0,8.0,56,0.00,,,0.00,156,Wunderground v.1.15,2013-03-29 16:09:00,
2013-03-29 12:14:00,47.5,31.2,30.10,NW,317,5.0,5.0,53,0.00,,,0.00,1041,Wunderground v.1.15,2013-03-29 16:14:00,
2013-03-29 12:24:00,47.6,30.8,30.10,NW,326,5.0,8.0,52,0.00,,,0.00,998,Wunderground v.1.15,2013-03-29 16:24:00,
2013-03-29 12:29:00,48.2,32.3,30.09,North,355,5.0,8.0,54,0.00,,,0.00,411,Wunderground v.1.15,2013-03-29 16:29:00,
2013-03-29 12:34:00,48.5,32.6,30.09,ENE,78,7.0,7.0,54,0.00,,,0.00,1069,Wunderground v.1.15,2013-03-29 16:34:00,
2013-03-29 12:39:00,47.9,31.6,30.09,NNW,331,7.0,8.0,53,0.00,,,0.00,251,Wunderground v.1.15,2013-03-29 16:39:00,
2013-03-29 12:49:00,49.0,32.1,30.09,NNW,347,6.0,6.0,52,0.00,,,0.00,1100,Wunderground v.1.15,2013-03-29 16:49:00,
2013-03-29 12:54:00,47.2,30.5,30.08,North,5,4.0,6.0,52,0.00,,,0.00,221,Wunderground v.1.15,2013-03-29 16:54:00,
2013-03-29 12:59:00,46.9,31.6,30.08,WNW,297,4.0,6.0,55,0.00,,,0.00,330,Wunderground v.1.15,2013-03-29 16:59:00,
2013-03-29 14:04:00,48.2,30.4,30.06,NNW,339,3.0,8.0,50,0.00,,,0.00,461,Wunderground v.1.15,2013-03-29 18:04:00,
2013-03-29 14:09:00,47.7,30.4,30.06,ENE,77,4.0,4.0,51,0.00,,,0.00,287,Wunderground v.1.15,2013-03-29 18:09:00,
2013-03-29 14:14:00,47.3,30.5,30.06,North,355,5.0,9.0,52,0.00,,,0.00,244,Wunderground v.1.15,2013-03-29 18:14:00,
2013-03-29 14:19:00,47.2,30.9,30.06,NE,44,4.0,4.0,53,0.00,,,0.00,281,Wunderground v.1.15,2013-03-29 18:19:00,
2013-03-29 14:29:00,47.5,29.8,30.05,North,5,4.0,4.0,50,0.00,,,0.00,290,Wunderground v.1.15,2013-03-29 18:29:00,
2013-03-29 14:34:00,47.2,30.5,30.05,NNE,15,5.0,5.0,52,0.00,,,0.00,288,Wunderground v.1.15,2013-03-29 18:34:00,
2013-03-29 14:39:00,47.2,30.5,30.05,NE,55,4.0,4.0,52,0.00,,,0.00,265,Wunderground v.1.15,2013-03-29 18:39:00,
2013-03-29 14:49:00,47.0,30.7,30.05,North,5,4.0,9.0,53,0.00,,,0.00,294,Wunderground v.1.15,2013-03-29 18:49:00,
2013-03-29 14:54:00,46.8,30.6,30.05,NNE,28,6.0,9.0,53,0.00,,,0.00,334,Wunderground v.1.15,2013-03-29 18:54:00,
2013-03-29 15:04:00,46.6,30.8,30.05,North,5,5.0,6.0,54,0.00,,,0.00,287,Wunderground v.1.15,2013-03-29 19:04:00,
2013-03-29 15:09:00,46.8,30.6,30.05,NW,319,5.0,6.0,53,0.00,,,0.00,448,Wunderground v.1.15,2013-03-29 19:09:00,
2013-03-29 15:14:00,47.6,31.8,30.05,NNW,348,5.0,6.0,54,0.00,,,0.00,441,Wunderground v.1.15,2013-03-29 19:14:00,
2013-03-29 15:19:00,47.6,31.8,30.04,NNW,344,4.0,12.0,54,0.00,,,0.00,267,Wunderground v.1.15,2013-03-29 19:19:00,
2013-03-29 15:29:00,46.9,30.6,30.04,NNW,342,7.0,9.0,53,0.00,,,0.00,214,Wunderground v.1.15,2013-03-29 19:29:00,
2013-03-29 15:34:00,46.6,30.8,30.04,NNW,332,7.0,7.0,54,0.00,,,0.00,216,Wunderground v.1.15,2013-03-29 19:34:00,
2013-03-29 15:39:00,46.3,31.0,30.04,North,5,6.0,7.0,55,0.00,,,0.00,271,Wunderground v.1.15,2013-03-29 19:39:00,
2013-03-29 15:44:00,46.8,31.5,30.04,North,350,6.0,6.0,55,0.00,,,0.00,322,Wunderground v.1.15,2013-03-29 19:44:00,
2013-03-29 15:54:00,46.4,30.2,30.04,NNE,18,6.0,6.0,53,0.00,,,0.00,265,Wunderground v.1.15,2013-03-29 19:54:00,
2013-03-29 16:04:00,46.4,30.6,30.04,NNW,340,4.0,4.0,54,0.00,,,0.00,207,Wunderground v.1.15,2013-03-29 20:04:00,
2013-03-29 16:14:00,46.3,30.1,30.04,NNW,327,6.0,6.0,53,0.00,,,0.00,243,Wunderground v.1.15,2013-03-29 20:14:00,
2013-03-29 16:19:00,46.5,30.7,30.04,NNE,23,4.0,6.0,54,0.00,,,0.00,206,Wunderground v.1.15,2013-03-29 20:19:00,
2013-03-29 16:24:00,46.6,30.4,30.04,North,355,4.0,5.0,53,0.00,,,0.00,165,Wunderground v.1.15,2013-03-29 20:24:00,
2013-03-29 16:29:00,46.4,30.2,30.04,North,360,5.0,5.0,53,0.00,,,0.00,195,Wunderground v.1.15,2013-03-29 20:29:00,
2013-03-29 16:34:00,46.2,30.0,30.04,NNW,333,4.0,4.0,53,0.00,,,0.00,213,Wunderground v.1.15,2013-03-29 20:34:00,
2013-03-29 16:39:00,46.1,29.4,30.04,NW,324,5.0,5.0,52,0.00,,,0.00,188,Wunderground v.1.15,2013-03-29 20:39:00,
2013-03-29 16:44:00,46.1,29.9,30.04,NW,312,5.0,5.0,53,0.00,,,0.00,149,Wunderground v.1.15,2013-03-29 20:44:00,
2013-03-29 16:49:00,45.9,29.2,30.04,North,350,3.0,5.0,52,0.00,,,0.00,125,Wunderground v.1.15,2013-03-29 20:49:00,
2013-03-29 16:59:00,45.6,29.9,30.04,NW,326,3.0,3.0,54,0.00,,,0.00,100,Wunderground v.1.15,2013-03-29 20:59:00,
2013-03-29 17:04:00,45.4,29.3,30.04,North,355,4.0,5.0,53,0.00,,,0.00,81,Wunderground v.1.15,2013-03-29 21:04:00,
2013-03-29 17:09:00,45.2,29.1,30.05,North,351,3.0,5.0,53,0.00,,,0.00,58,Wunderground v.1.15,2013-03-29 21:09:00,
2013-03-29 17:14:00,44.9,28.8,30.05,North,355,4.0,5.0,53,0.00,,,0.00,49,Wunderground v.1.15,2013-03-29 21:14:00,
2013-03-29 17:24:00,44.3,29.1,30.05,NNW,340,3.0,3.0,55,0.00,,,0.00,51,Wunderground v.1.15,2013-03-29 21:24:00,
2013-03-29 17:34:00,44.0,29.3,30.05,NNW,338,4.0,4.0,56,0.00,,,0.00,67,Wunderground v.1.15,2013-03-29 21:34:00,
2013-03-29 17:39:00,43.8,29.1,30.05,NNW,348,6.0,6.0,56,0.00,,,0.00,60,Wunderground v.1.15,2013-03-29 21:39:00,
2013-03-29 17:44:00,43.6,28.9,30.05,North,350,6.0,6.0,56,0.00,,,0.00,51,Wunderground v.1.15,2013-03-29 21:44:00,
2013-03-29 17:49:00,43.4,29.2,30.06,NNW,330,4.0,6.0,57,0.00,,,0.00,44,Wunderground v.1.15,2013-03-29 21:49:00,
2013-03-29 17:59:00,43.0,28.8,30.06,NNW,348,6.0,7.0,57,0.00,,,0.00,35,Wunderground v.1.15,2013-03-29 21:59:00,
2013-03-29 18:04:00,42.6,28.8,30.06,North,9,7.0,8.0,58,0.00,,,0.00,32,Wunderground v.1.15,2013-03-29 22:04:00,
2013-03-29 18:14:00,42.1,28.4,30.07,NNE,26,7.0,8.0,58,0.00,,,0.00,23,Wunderground v.1.15,2013-03-29 22:14:00,
2013-03-29 18:19:00,41.8,28.1,30.07,NNW,331,7.0,12.0,58,0.00,,,0.00,21,Wunderground v.1.15,2013-03-29 22:19:00,
2013-03-29 18:29:00,41.5,27.8,30.07,NNW,331,7.0,10.0,58,0.00,,,0.00,19,Wunderground v.1.15,2013-03-29 22:29:00,
2013-03-29 18:34:00,41.4,28.1,30.07,North,350,6.0,6.0,59,0.00,,,0.00,16,Wunderground v.1.15,2013-03-29 22:34:00,
2013-03-29 18:39:00,41.2,27.9,30.07,NNW,348,5.0,6.0,59,0.00,,,0.00,14,Wunderground v.1.15,2013-03-29 22:39:00,
2013-03-29 18:44:00,41.1,28.3,30.07,North,5,5.0,5.0,60,0.00,,,0.00,12,Wunderground v.1.15,2013-03-29 22:44:00,
2013-03-29 18:54:00,40.9,28.5,30.07,NNW,347,4.0,6.0,61,0.00,,,0.00,12,Wunderground v.1.15,2013-03-29 22:54:00,
2013-03-29 19:04:00,40.7,28.7,30.07,North,355,4.0,5.0,62,0.00,,,0.00,7,Wunderground v.1.15,2013-03-29 23:04:00,
2013-03-29 19:09:00,40.5,28.9,30.07,North,355,5.0,5.0,63,0.00,,,0.00,0,Wunderground v.1.15,2013-03-29 23:09:00,
2013-03-29 19:14:00,40.4,28.8,30.07,North,355,4.0,4.0,63,0.00,,,0.00,0,Wunderground v.1.15,2013-03-29 23:14:00,
2013-03-29 19:24:00,40.1,28.9,30.07,NW,319,4.0,4.0,64,0.00,,,0.00,0,Wunderground v.1.15,2013-03-29 23:24:00,
2013-03-29 19:29:00,40.0,29.2,30.07,WNW,291,3.0,4.0,65,0.00,,,0.00,0,Wunderground v.1.15,2013-03-29 23:29:00,
2013-03-29 19:39:00,39.9,29.1,30.07,NW,326,3.0,6.0,65,0.00,,,0.00,0,Wunderground v.1.15,2013-03-29 23:39:00,
2013-03-29 19:44:00,39.8,29.4,30.07,NNE,13,4.0,4.0,66,0.00,,,0.00,0,Wunderground v.1.15,2013-03-29 23:44:00,
2013-03-29 19:49:00,39.7,28.9,30.07,NNE,13,4.0,4.0,65,0.00,,,0.00,0,Wunderground v.1.15,2013-03-29 23:49:00,
2013-03-29 19:54:00,39.7,29.3,30.08,NNW,348,4.0,4.0,66,0.00,,,0.00,0,Wunderground v.1.15,2013-03-29 23:54:00,
2013-03-29 19:59:00,39.6,29.2,30.08,NNW,347,4.0,6.0,66,0.00,,,0.00,0,Wunderground v.1.15,2013-03-29 23:59:00,
2013-03-29 20:09:00,39.3,29.3,30.08,North,5,3.0,4.0,67,0.00,,,0.00,0,Wunderground v.1.15,2013-03-30 00:09:00,
2013-03-29 20:19:00,39.1,29.4,30.08,NNW,332,3.0,4.0,68,0.00,,,0.00,0,Wunderground v.1.15,2013-03-30 00:19:00,
2013-03-29 20:24:00,38.9,29.6,30.09,NNW,336,3.0,6.0,69,0.00,,,0.00,0,Wunderground v.1.15,2013-03-30 00:24:00,
2013-03-29 20:34:00,38.8,29.5,30.08,North,351,3.0,3.0,69,0.00,,,0.00,0,Wunderground v.1.15,2013-03-30 00:34:00,
2013-03-29 20:39:00,38.7,29.4,30.09,North,5,3.0,3.0,69,0.00,,,0.00,0,Wunderground v.1.15,2013-03-30 00:39:00,
2013-03-29 20:44:00,38.7,29.8,30.09,North,350,2.0,2.0,70,0.00,,,0.00,0,Wunderground v.1.15,2013-03-30 00:44:00,
2013-03-29 20:49:00,38.6,29.7,30.09,North,355,2.0,2.0,70,0.00,,,0.00,0,Wunderground v.1.15,2013-03-30 00:49:00,
2013-03-29 20:59:00,38.4,29.8,30.09,NNW,348,1.0,3.0,71,0.00,,,0.00,0,Wunderground v.1.15,2013-03-30 00:59:00,
2013-03-29 21:04:00,38.3,29.7,30.09,NNE,28,1.0,1.0,71,0.00,,,0.00,0,Wunderground v.1.15,2013-03-30 01:04:00,
2013-03-29 21:09:00,38.1,29.5,30.09,NW,322,1.0,1.0,71,0.00,,,0.00,0,Wunderground v.1.15,2013-03-30 01:09:00,
2013-03-29 21:14:00,38.1,29.5,30.09,NNW,340,1.0,2.0,71,0.00,,,0.00,0,Wunderground v.1.15,2013-03-30 01:14:00,
2013-03-29 21:24:00,38.0,29.8,30.10,NW,321,2.0,2.0,72,0.00,,,0.00,0,Wunderground v.1.15,2013-03-30 01:24:00,
2013-03-29 21:29:00,38.0,29.8,30.10,NW,322,1.0,2.0,72,0.00,,,0.00,0,Wunderground v.1.15,2013-03-30 01:29:00,
2013-03-29 21:39:00,37.8,29.6,30.10,North,10,1.0,3.0,72,0.00,,,0.00,0,Wunderground v.1.15,2013-03-30 01:39:00,
2013-03-29 21:44:00,37.7,29.5,30.10,NNW,333,2.0,2.0,72,0.00,,,0.00,0,Wunderground v.1.15,2013-03-30 01:44:00,
2013-03-29 21:49:00,37.5,29.3,30.10,NNW,341,2.0,2.0,72,0.00,,,0.00,0,Wunderground v.1.15,2013-03-30 01:49:00,
2013-03-29 21:54:00,37.4,29.2,30.10,North,360,2.0,2.0,72,0.00,,,0.00,0,Wunderground v.1.15,2013-03-30 01:54:00,
2013-03-29 21:59:00,37.3,29.1,30.10,NNW,331,2.0,2.0,72,0.00,,,0.00,0,Wunderground v.1.15,2013-03-30 01:59:00,
2013-03-29 22:09:00,37.1,29.2,30.10,NNW,340,2.0,6.0,73,0.00,,,0.00,0,Wunderground v.1.15,2013-03-30 02:09:00,
2013-03-29 22:19:00,36.8,29.3,30.10,WNW,297,2.0,2.0,74,0.00,,,0.00,0,Wunderground v.1.15,2013-03-30 02:19:00,
2013-03-29 22:24:00,36.6,29.1,30.10,NNW,330,1.0,1.0,74,0.00,,,0.00,0,Wunderground v.1.15,2013-03-30 02:24:00,
2013-03-29 22:29:00,36.4,28.9,30.10,NW,324,1.0,1.0,74,0.00,,,0.00,0,Wunderground v.1.15,2013-03-30 02:29:00,
2013-03-29 22:34:00,36.3,29.1,30.10,NNW,348,1.0,3.0,75,0.00,,,0.00,0,Wunderground v.1.15,2013-03-30 02:34:00,
2013-03-29 22:39:00,36.1,29.3,30.10,NNW,342,2.0,3.0,76,0.00,,,0.00,0,Wunderground v.1.15,2013-03-30 02:39:00,
2013-03-29 22:49:00,35.7,28.9,30.10,NW,322,3.0,3.0,76,0.00,,,0.00,0,Wunderground v.1.15,2013-03-30 02:49:00,
2013-03-29 22:54:00,35.7,28.9,30.10,North,5,2.0,3.0,76,0.00,,,0.00,0,Wunderground v.1.15,2013-03-30 02:54:00,
2013-03-29 22:59:00,35.6,29.1,30.10,NW,317,2.0,6.0,77,0.00,,,0.00,0,Wunderground v.1.15,2013-03-30 02:59:00,
2013-03-29 23:04:00,35.6,29.1,30.10,NNE,13,4.0,4.0,77,0.00,,,0.00,0,Wunderground v.1.15,2013-03-30 03:04:00,
2013-03-29 23:09:00,35.7,29.2,30.10,NNW,336,4.0,7.0,77,0.00,,,0.00,0,Wunderground v.1.15,2013-03-30 03:09:00,
2013-03-29 23:14:00,35.8,29.3,30.09,NW,316,4.0,4.0,77,0.00,,,0.00,0,Wunderground v.1.15,2013-03-30 03:14:00,
2013-03-29 23:24:00,35.9,29.4,30.09,North,5,4.0,4.0,77,0.00,,,0.00,0,Wunderground v.1.15,2013-03-30 03:24:00,
2013-03-29 23:29:00,35.9,29.4,30.09,NNE,14,3.0,4.0,77,0.00,,,0.00,0,Wunderground v.1.15,2013-03-30 03:29:00,
2013-03-29 23:39:00,35.6,29.1,30.09,North,355,3.0,3.0,77,0.00,,,0.00,0,Wunderground v.1.15,2013-03-30 03:39:00,
2013-03-29 23:49:00,35.3,29.1,30.10,NW,313,4.0,4.0,78,0.00,,,0.00,0,Wunderground v.1.15,2013-03-30 03:49:00,
2013-03-29 23:59:00,35.2,29.3,30.10,North,355,3.0,5.0,79,0.00,,,0.00,0,Wunderground v.1.15,2013-03-30 03:59:00,